sensor_id;sensor_type;location;lat;lon;timestamp;P1;durP1;ratioP1;P2;durP2;ratioP2
8183;SDS011;4133;48.752;9.088;2023-02-15T00:02:25;21.57;;;12.93;;
8183;SDS011;4133;48.752;9.088;2023-02-15T00:04:51;22.50;;;12.83;;
8183;SDS011;4133;48.752;9.088;2023-02-15T00:10:22;22.67;;;12.83;;
8183;SDS011;4133;48.752;9.088;2023-02-15T00:12:48;20.47;;;12.73;;
8183;SDS011;4133;48.752;9.088;2023-02-15T00:15:14;20.20;;;11.30;;
8183;SDS011;4133;48.752;9.088;2023-02-15T00:17:40;18.63;;;11.00;;
8183;SDS011;4133;48.752;9.088;2023-02-15T00:20:06;21.40;;;12.00;;
8183;SDS011;4133;48.752;9.088;2023-02-15T00:22:32;17.07;;;10.07;;
8183;SDS011;4133;48.752;9.088;2023-02-15T00:24:58;18.50;;;10.33;;
8183;SDS011;4133;48.752;9.088;2023-02-15T00:27:24;17.93;;;10.40;;
8183;SDS011;4133;48.752;9.088;2023-02-15T00:29:50;16.70;;;10.30;;
8183;SDS011;4133;48.752;9.088;2023-02-15T00:32:16;16.10;;;10.20;;
8183;SDS011;4133;48.752;9.088;2023-02-15T00:34:42;15.63;;;9.30;;
8183;SDS011;4133;48.752;9.088;2023-02-15T00:37:08;15.43;;;10.10;;
8183;SDS011;4133;48.752;9.088;2023-02-15T00:39:34;17.10;;;9.60;;
8183;SDS011;4133;48.752;9.088;2023-02-15T00:42:00;16.43;;;10.40;;
8183;SDS011;4133;48.752;9.088;2023-02-15T00:44:26;15.77;;;9.83;;
8183;SDS011;4133;48.752;9.088;2023-02-15T00:46:52;16.30;;;10.27;;
8183;SDS011;4133;48.752;9.088;2023-02-15T00:49:18;15.53;;;9.70;;
8183;SDS011;4133;48.752;9.088;2023-02-15T00:51:44;15.43;;;9.83;;
8183;SDS011;4133;48.752;9.088;2023-02-15T00:54:10;14.63;;;9.20;;
8183;SDS011;4133;48.752;9.088;2023-02-15T00:56:36;18.23;;;10.27;;
8183;SDS011;4133;48.752;9.088;2023-02-15T00:59:02;15.23;;;9.80;;
8183;SDS011;4133;48.752;9.088;2023-02-15T01:01:28;14.87;;;10.00;;
8183;SDS011;4133;48.752;9.088;2023-02-15T01:03:54;16.67;;;10.23;;
8183;SDS011;4133;48.752;9.088;2023-02-15T01:09:23;16.77;;;10.40;;
8183;SDS011;4133;48.752;9.088;2023-02-15T01:11:49;16.90;;;10.23;;
8183;SDS011;4133;48.752;9.088;2023-02-15T01:14:15;17.90;;;10.87;;
8183;SDS011;4133;48.752;9.088;2023-02-15T01:16:41;19.00;;;11.20;;
8183;SDS011;4133;48.752;9.088;2023-02-15T01:19:07;22.80;;;12.20;;
8183;SDS011;4133;48.752;9.088;2023-02-15T01:21:33;22.30;;;12.93;;
8183;SDS011;4133;48.752;9.088;2023-02-15T01:24:00;18.03;;;11.00;;
8183;SDS011;4133;48.752;9.088;2023-02-15T01:26:26;20.53;;;11.70;;
8183;SDS011;4133;48.752;9.088;2023-02-15T01:28:52;17.90;;;10.70;;
8183;SDS011;4133;48.752;9.088;2023-02-15T01:31:19;21.43;;;11.00;;
8183;SDS011;4133;48.752;9.088;2023-02-15T01:33:48;20.33;;;11.33;;
8183;SDS011;4133;48.752;9.088;2023-02-15T01:36:14;18.43;;;10.43;;
8183;SDS011;4133;48.752;9.088;2023-02-15T01:38:42;19.37;;;10.17;;
8183;SDS011;4133;48.752;9.088;2023-02-15T01:41:08;22.30;;;10.87;;
8183;SDS011;4133;48.752;9.088;2023-02-15T01:43:54;19.57;;;11.10;;
8183;SDS011;4133;48.752;9.088;2023-02-15T01:46:22;19.23;;;11.10;;
8183;SDS011;4133;48.752;9.088;2023-02-15T01:48:50;18.60;;;10.80;;
8183;SDS011;4133;48.752;9.088;2023-02-15T01:51:18;16.73;;;10.50;;
8183;SDS011;4133;48.752;9.088;2023-02-15T01:54:09;20.83;;;11.77;;
8183;SDS011;4133;48.752;9.088;2023-02-15T01:56:33;17.00;;;11.00;;
8183;SDS011;4133;48.752;9.088;2023-02-15T01:59:13;21.43;;;11.87;;
8183;SDS011;4133;48.752;9.088;2023-02-15T02:01:40;18.80;;;11.17;;
8183;SDS011;4133;48.752;9.088;2023-02-15T02:09:54;18.47;;;10.53;;
8183;SDS011;4133;48.752;9.088;2023-02-15T02:12:20;20.43;;;10.93;;
8183;SDS011;4133;48.752;9.088;2023-02-15T02:14:47;21.50;;;10.97;;
8183;SDS011;4133;48.752;9.088;2023-02-15T02:17:17;18.50;;;10.70;;
8183;SDS011;4133;48.752;9.088;2023-02-15T02:33:05;18.07;;;10.57;;
8183;SDS011;4133;48.752;9.088;2023-02-15T02:43:25;21.97;;;11.77;;
8183;SDS011;4133;48.752;9.088;2023-02-15T02:46:01;18.47;;;11.47;;
8183;SDS011;4133;48.752;9.088;2023-02-15T02:48:29;21.33;;;11.90;;
8183;SDS011;4133;48.752;9.088;2023-02-15T02:50:56;20.13;;;11.97;;
8183;SDS011;4133;48.752;9.088;2023-02-15T02:53:22;18.87;;;10.77;;
8183;SDS011;4133;48.752;9.088;2023-02-15T02:55:52;22.57;;;12.40;;
8183;SDS011;4133;48.752;9.088;2023-02-15T03:00:56;20.87;;;11.67;;
8183;SDS011;4133;48.752;9.088;2023-02-15T03:08:54;19.57;;;11.60;;
8183;SDS011;4133;48.752;9.088;2023-02-15T03:11:22;21.57;;;11.60;;
8183;SDS011;4133;48.752;9.088;2023-02-15T03:13:48;19.17;;;11.03;;
8183;SDS011;4133;48.752;9.088;2023-02-15T03:16:15;21.67;;;12.00;;
8183;SDS011;4133;48.752;9.088;2023-02-15T03:18:55;18.73;;;10.93;;
8183;SDS011;4133;48.752;9.088;2023-02-15T03:21:27;18.23;;;10.63;;
8183;SDS011;4133;48.752;9.088;2023-02-15T03:24:01;18.33;;;11.13;;
8183;SDS011;4133;48.752;9.088;2023-02-15T03:26:29;18.27;;;10.87;;
8183;SDS011;4133;48.752;9.088;2023-02-15T03:28:56;19.70;;;11.47;;
8183;SDS011;4133;48.752;9.088;2023-02-15T03:31:24;20.27;;;12.47;;
8183;SDS011;4133;48.752;9.088;2023-02-15T03:33:54;20.03;;;11.90;;
8183;SDS011;4133;48.752;9.088;2023-02-15T03:36:22;19.53;;;11.33;;
8183;SDS011;4133;48.752;9.088;2023-02-15T03:38:59;20.47;;;10.60;;
8183;SDS011;4133;48.752;9.088;2023-02-15T03:41:27;20.87;;;11.60;;
8183;SDS011;4133;48.752;9.088;2023-02-15T03:43:57;19.40;;;11.30;;
8183;SDS011;4133;48.752;9.088;2023-02-15T03:46:26;23.20;;;12.63;;
8183;SDS011;4133;48.752;9.088;2023-02-15T03:49:02;19.27;;;11.27;;
8183;SDS011;4133;48.752;9.088;2023-02-15T03:51:31;18.97;;;10.83;;
8183;SDS011;4133;48.752;9.088;2023-02-15T03:53:58;17.57;;;10.90;;
8183;SDS011;4133;48.752;9.088;2023-02-15T03:56:24;19.13;;;11.47;;
8183;SDS011;4133;48.752;9.088;2023-02-15T03:58:51;18.30;;;11.20;;
8183;SDS011;4133;48.752;9.088;2023-02-15T04:01:51;19.87;;;10.83;;
8183;SDS011;4133;48.752;9.088;2023-02-15T04:04:28;20.17;;;10.97;;
8183;SDS011;4133;48.752;9.088;2023-02-15T04:09:59;19.73;;;11.30;;
8183;SDS011;4133;48.752;9.088;2023-02-15T04:12:43;20.40;;;11.83;;
8183;SDS011;4133;48.752;9.088;2023-02-15T04:15:11;20.20;;;10.90;;
8183;SDS011;4133;48.752;9.088;2023-02-15T04:18:07;21.43;;;10.47;;
8183;SDS011;4133;48.752;9.088;2023-02-15T04:20:33;19.13;;;11.03;;
8183;SDS011;4133;48.752;9.088;2023-02-15T04:23:17;21.67;;;11.63;;
8183;SDS011;4133;48.752;9.088;2023-02-15T04:26:03;18.50;;;11.10;;
8183;SDS011;4133;48.752;9.088;2023-02-15T04:28:29;18.87;;;11.13;;
8183;SDS011;4133;48.752;9.088;2023-02-15T04:30:55;18.27;;;10.43;;
8183;SDS011;4133;48.752;9.088;2023-02-15T04:33:21;18.93;;;10.77;;
8183;SDS011;4133;48.752;9.088;2023-02-15T04:35:47;18.50;;;10.90;;
8183;SDS011;4133;48.752;9.088;2023-02-15T04:38:13;18.17;;;11.10;;
8183;SDS011;4133;48.752;9.088;2023-02-15T04:40:39;17.10;;;10.07;;
8183;SDS011;4133;48.752;9.088;2023-02-15T04:43:05;17.67;;;10.50;;
8183;SDS011;4133;48.752;9.088;2023-02-15T04:45:31;17.97;;;9.87;;
8183;SDS011;4133;48.752;9.088;2023-02-15T04:47:57;20.63;;;10.03;;
8183;SDS011;4133;48.752;9.088;2023-02-15T04:50:23;17.17;;;10.27;;
8183;SDS011;4133;48.752;9.088;2023-02-15T04:52:49;16.33;;;9.80;;
8183;SDS011;4133;48.752;9.088;2023-02-15T04:55:15;14.67;;;9.30;;
8183;SDS011;4133;48.752;9.088;2023-02-15T04:57:41;17.10;;;10.30;;
8183;SDS011;4133;48.752;9.088;2023-02-15T05:00:07;17.27;;;10.23;;
8183;SDS011;4133;48.752;9.088;2023-02-15T05:02:34;17.87;;;10.03;;
8183;SDS011;4133;48.752;9.088;2023-02-15T05:05:00;18.17;;;10.37;;
8183;SDS011;4133;48.752;9.088;2023-02-15T05:13:33;18.70;;;8.93;;
8183;SDS011;4133;48.752;9.088;2023-02-15T05:15:59;16.30;;;9.03;;
8183;SDS011;4133;48.752;9.088;2023-02-15T05:18:25;16.03;;;9.73;;
8183;SDS011;4133;48.752;9.088;2023-02-15T05:20:50;16.13;;;9.40;;
8183;SDS011;4133;48.752;9.088;2023-02-15T05:23:16;17.30;;;10.03;;
8183;SDS011;4133;48.752;9.088;2023-02-15T05:25:46;16.03;;;10.30;;
8183;SDS011;4133;48.752;9.088;2023-02-15T05:28:31;17.97;;;10.17;;
8183;SDS011;4133;48.752;9.088;2023-02-15T05:31:00;16.97;;;9.50;;
8183;SDS011;4133;48.752;9.088;2023-02-15T05:33:27;19.40;;;10.47;;
8183;SDS011;4133;48.752;9.088;2023-02-15T05:35:53;18.47;;;10.50;;
8183;SDS011;4133;48.752;9.088;2023-02-15T05:38:19;16.27;;;10.03;;
8183;SDS011;4133;48.752;9.088;2023-02-15T05:40:45;15.77;;;9.77;;
8183;SDS011;4133;48.752;9.088;2023-02-15T05:43:11;18.13;;;10.43;;
8183;SDS011;4133;48.752;9.088;2023-02-15T05:45:37;15.13;;;9.43;;
8183;SDS011;4133;48.752;9.088;2023-02-15T05:48:03;19.07;;;10.00;;
8183;SDS011;4133;48.752;9.088;2023-02-15T05:50:29;16.83;;;9.70;;
8183;SDS011;4133;48.752;9.088;2023-02-15T05:52:55;16.93;;;9.97;;
8183;SDS011;4133;48.752;9.088;2023-02-15T05:55:21;18.05;;;10.65;;
8183;SDS011;4133;48.752;9.088;2023-02-15T05:57:48;18.00;;;10.90;;
8183;SDS011;4133;48.752;9.088;2023-02-15T06:00:14;19.47;;;9.97;;
8183;SDS011;4133;48.752;9.088;2023-02-15T06:02:40;17.67;;;9.87;;
8183;SDS011;4133;48.752;9.088;2023-02-15T06:05:06;16.50;;;9.53;;
8183;SDS011;4133;48.752;9.088;2023-02-15T06:07:32;18.17;;;9.40;;
8183;SDS011;4133;48.752;9.088;2023-02-15T06:09:58;18.37;;;10.13;;
8183;SDS011;4133;48.752;9.088;2023-02-15T06:12:24;14.03;;;9.10;;
8183;SDS011;4133;48.752;9.088;2023-02-15T06:14:50;15.17;;;9.07;;
8183;SDS011;4133;48.752;9.088;2023-02-15T06:17:16;16.83;;;9.07;;
8183;SDS011;4133;48.752;9.088;2023-02-15T06:19:43;16.77;;;10.10;;
8183;SDS011;4133;48.752;9.088;2023-02-15T06:22:09;15.83;;;9.60;;
8183;SDS011;4133;48.752;9.088;2023-02-15T06:24:35;16.97;;;9.30;;
8183;SDS011;4133;48.752;9.088;2023-02-15T06:27:01;17.77;;;9.67;;
8183;SDS011;4133;48.752;9.088;2023-02-15T06:29:27;18.87;;;10.13;;
8183;SDS011;4133;48.752;9.088;2023-02-15T06:31:53;19.10;;;9.53;;
8183;SDS011;4133;48.752;9.088;2023-02-15T06:34:19;17.27;;;10.80;;
8183;SDS011;4133;48.752;9.088;2023-02-15T06:36:45;16.90;;;9.33;;
8183;SDS011;4133;48.752;9.088;2023-02-15T06:39:11;19.20;;;10.20;;
8183;SDS011;4133;48.752;9.088;2023-02-15T06:41:37;15.70;;;10.00;;
8183;SDS011;4133;48.752;9.088;2023-02-15T06:44:03;19.00;;;9.83;;
8183;SDS011;4133;48.752;9.088;2023-02-15T06:46:29;17.37;;;9.37;;
8183;SDS011;4133;48.752;9.088;2023-02-15T06:48:55;13.87;;;8.90;;
8183;SDS011;4133;48.752;9.088;2023-02-15T06:51:21;17.60;;;9.67;;
8183;SDS011;4133;48.752;9.088;2023-02-15T06:53:47;15.97;;;9.67;;
8183;SDS011;4133;48.752;9.088;2023-02-15T06:56:13;18.50;;;10.27;;
8183;SDS011;4133;48.752;9.088;2023-02-15T06:58:39;19.33;;;10.20;;
8183;SDS011;4133;48.752;9.088;2023-02-15T07:01:05;16.77;;;9.97;;
8183;SDS011;4133;48.752;9.088;2023-02-15T07:03:32;18.00;;;9.73;;
8183;SDS011;4133;48.752;9.088;2023-02-15T07:05:58;17.23;;;9.60;;
8183;SDS011;4133;48.752;9.088;2023-02-15T07:08:25;17.57;;;9.70;;
8183;SDS011;4133;48.752;9.088;2023-02-15T07:10:52;17.50;;;9.67;;
8183;SDS011;4133;48.752;9.088;2023-02-15T07:13:18;17.27;;;10.23;;
8183;SDS011;4133;48.752;9.088;2023-02-15T07:15:45;16.43;;;10.10;;
8183;SDS011;4133;48.752;9.088;2023-02-15T07:18:11;17.53;;;10.23;;
8183;SDS011;4133;48.752;9.088;2023-02-15T07:20:37;16.87;;;9.70;;
8183;SDS011;4133;48.752;9.088;2023-02-15T07:23:06;16.10;;;10.23;;
8183;SDS011;4133;48.752;9.088;2023-02-15T07:25:32;16.50;;;9.97;;
8183;SDS011;4133;48.752;9.088;2023-02-15T07:27:58;14.80;;;9.93;;
8183;SDS011;4133;48.752;9.088;2023-02-15T07:30:24;17.17;;;9.87;;
8183;SDS011;4133;48.752;9.088;2023-02-15T07:32:50;15.80;;;9.67;;
8183;SDS011;4133;48.752;9.088;2023-02-15T07:35:35;16.77;;;9.80;;
8183;SDS011;4133;48.752;9.088;2023-02-15T07:38:01;16.27;;;9.50;;
8183;SDS011;4133;48.752;9.088;2023-02-15T07:40:27;16.17;;;9.60;;
8183;SDS011;4133;48.752;9.088;2023-02-15T07:42:53;16.67;;;10.03;;
8183;SDS011;4133;48.752;9.088;2023-02-15T07:48:09;16.73;;;9.67;;
8183;SDS011;4133;48.752;9.088;2023-02-15T07:50:35;14.97;;;9.63;;
8183;SDS011;4133;48.752;9.088;2023-02-15T07:53:01;16.67;;;10.43;;
8183;SDS011;4133;48.752;9.088;2023-02-15T07:55:28;18.07;;;10.30;;
8183;SDS011;4133;48.752;9.088;2023-02-15T07:57:54;14.63;;;10.43;;
8183;SDS011;4133;48.752;9.088;2023-02-15T08:00:20;17.83;;;10.67;;
8183;SDS011;4133;48.752;9.088;2023-02-15T08:02:55;17.77;;;10.80;;
8183;SDS011;4133;48.752;9.088;2023-02-15T08:05:51;15.43;;;9.83;;
8183;SDS011;4133;48.752;9.088;2023-02-15T08:08:16;20.90;;;10.53;;
8183;SDS011;4133;48.752;9.088;2023-02-15T08:10:58;18.10;;;10.07;;
8183;SDS011;4133;48.752;9.088;2023-02-15T08:14:13;14.80;;;9.83;;
8183;SDS011;4133;48.752;9.088;2023-02-15T08:21:35;14.97;;;9.67;;
8183;SDS011;4133;48.752;9.088;2023-02-15T08:24:02;17.83;;;10.77;;
8183;SDS011;4133;48.752;9.088;2023-02-15T08:26:29;17.97;;;11.13;;
8183;SDS011;4133;48.752;9.088;2023-02-15T08:28:55;17.40;;;10.87;;
8183;SDS011;4133;48.752;9.088;2023-02-15T08:31:23;19.55;;;14.75;;
8183;SDS011;4133;48.752;9.088;2023-02-15T08:33:50;16.47;;;11.93;;
8183;SDS011;4133;48.752;9.088;2023-02-15T08:36:18;18.00;;;12.00;;
8183;SDS011;4133;48.752;9.088;2023-02-15T08:38:44;16.97;;;12.73;;
8183;SDS011;4133;48.752;9.088;2023-02-15T08:43:43;20.03;;;12.43;;
8183;SDS011;4133;48.752;9.088;2023-02-15T08:46:10;16.97;;;11.97;;
8183;SDS011;4133;48.752;9.088;2023-02-15T08:48:37;16.90;;;12.43;;
8183;SDS011;4133;48.752;9.088;2023-02-15T08:51:13;18.90;;;11.77;;
8183;SDS011;4133;48.752;9.088;2023-02-15T08:53:40;18.30;;;12.20;;
8183;SDS011;4133;48.752;9.088;2023-02-15T08:56:07;16.40;;;12.37;;
8183;SDS011;4133;48.752;9.088;2023-02-15T08:58:33;18.37;;;11.80;;
8183;SDS011;4133;48.752;9.088;2023-02-15T09:01:00;19.53;;;12.53;;
8183;SDS011;4133;48.752;9.088;2023-02-15T09:03:29;17.27;;;12.10;;
8183;SDS011;4133;48.752;9.088;2023-02-15T09:05:59;18.30;;;12.57;;
8183;SDS011;4133;48.752;9.088;2023-02-15T09:08:25;18.73;;;11.77;;
8183;SDS011;4133;48.752;9.088;2023-02-15T09:10:52;17.67;;;12.17;;
8183;SDS011;4133;48.752;9.088;2023-02-15T09:13:18;17.07;;;12.20;;
8183;SDS011;4133;48.752;9.088;2023-02-15T09:15:45;18.80;;;12.80;;
8183;SDS011;4133;48.752;9.088;2023-02-15T09:18:11;16.03;;;11.87;;
8183;SDS011;4133;48.752;9.088;2023-02-15T09:20:41;15.20;;;11.90;;
8183;SDS011;4133;48.752;9.088;2023-02-15T09:23:07;21.30;;;12.20;;
8183;SDS011;4133;48.752;9.088;2023-02-15T09:25:34;14.63;;;10.90;;
8183;SDS011;4133;48.752;9.088;2023-02-15T09:28:00;16.50;;;12.00;;
8183;SDS011;4133;48.752;9.088;2023-02-15T09:30:26;19.03;;;12.73;;
8183;SDS011;4133;48.752;9.088;2023-02-15T09:32:55;18.87;;;13.00;;
8183;SDS011;4133;48.752;9.088;2023-02-15T09:35:21;21.53;;;13.33;;
8183;SDS011;4133;48.752;9.088;2023-02-15T09:37:47;19.37;;;12.60;;
8183;SDS011;4133;48.752;9.088;2023-02-15T09:40:13;17.53;;;11.90;;
8183;SDS011;4133;48.752;9.088;2023-02-15T09:50:12;17.53;;;12.27;;
8183;SDS011;4133;48.752;9.088;2023-02-15T10:03:14;16.67;;;11.83;;
8183;SDS011;4133;48.752;9.088;2023-02-15T10:11:17;16.43;;;12.07;;
8183;SDS011;4133;48.752;9.088;2023-02-15T10:14:07;17.33;;;11.40;;
8183;SDS011;4133;48.752;9.088;2023-02-15T10:21:46;17.40;;;11.33;;
8183;SDS011;4133;48.752;9.088;2023-02-15T10:26:46;17.57;;;11.50;;
8183;SDS011;4133;48.752;9.088;2023-02-15T10:31:49;22.47;;;12.43;;
8183;SDS011;4133;48.752;9.088;2023-02-15T10:34:19;17.13;;;11.00;;
8183;SDS011;4133;48.752;9.088;2023-02-15T10:47:16;19.47;;;10.50;;
8183;SDS011;4133;48.752;9.088;2023-02-15T10:50:18;16.33;;;10.33;;
8183;SDS011;4133;48.752;9.088;2023-02-15T11:00:39;21.00;;;10.93;;
8183;SDS011;4133;48.752;9.088;2023-02-15T11:08:02;15.93;;;9.97;;
8183;SDS011;4133;48.752;9.088;2023-02-15T11:12:56;17.23;;;9.47;;
8183;SDS011;4133;48.752;9.088;2023-02-15T11:15:28;16.93;;;10.30;;
8183;SDS011;4133;48.752;9.088;2023-02-15T11:20:45;19.07;;;10.57;;
8183;SDS011;4133;48.752;9.088;2023-02-15T11:23:13;16.37;;;10.37;;
8183;SDS011;4133;48.752;9.088;2023-02-15T11:25:48;17.80;;;10.00;;
8183;SDS011;4133;48.752;9.088;2023-02-15T11:28:19;16.10;;;9.80;;
8183;SDS011;4133;48.752;9.088;2023-02-15T11:30:48;19.60;;;10.00;;
8183;SDS011;4133;48.752;9.088;2023-02-15T11:33:18;15.33;;;9.67;;
8183;SDS011;4133;48.752;9.088;2023-02-15T11:38:29;15.18;;;10.20;;
8183;SDS011;4133;48.752;9.088;2023-02-15T11:41:03;13.47;;;9.97;;
8183;SDS011;4133;48.752;9.088;2023-02-15T11:46:00;18.63;;;9.53;;
8183;SDS011;4133;48.752;9.088;2023-02-15T11:48:26;15.03;;;8.90;;
8183;SDS011;4133;48.752;9.088;2023-02-15T11:50:55;16.57;;;8.30;;
8183;SDS011;4133;48.752;9.088;2023-02-15T11:53:22;17.97;;;9.23;;
8183;SDS011;4133;48.752;9.088;2023-02-15T11:55:50;17.97;;;8.63;;
8183;SDS011;4133;48.752;9.088;2023-02-15T12:00:50;19.70;;;9.87;;
8183;SDS011;4133;48.752;9.088;2023-02-15T12:03:39;16.60;;;11.03;;
8183;SDS011;4133;48.752;9.088;2023-02-15T12:06:12;15.10;;;10.60;;
8183;SDS011;4133;48.752;9.088;2023-02-15T12:08:40;16.58;;;10.65;;
8183;SDS011;4133;48.752;9.088;2023-02-15T12:11:09;15.17;;;11.03;;
8183;SDS011;4133;48.752;9.088;2023-02-15T12:13:55;21.13;;;11.53;;
8183;SDS011;4133;48.752;9.088;2023-02-15T12:16:21;16.10;;;11.20;;
8183;SDS011;4133;48.752;9.088;2023-02-15T12:18:47;17.58;;;12.20;;
8183;SDS011;4133;48.752;9.088;2023-02-15T12:24:00;17.40;;;11.20;;
8183;SDS011;4133;48.752;9.088;2023-02-15T12:26:30;16.30;;;10.93;;
8183;SDS011;4133;48.752;9.088;2023-02-15T12:28:57;17.10;;;11.70;;
8183;SDS011;4133;48.752;9.088;2023-02-15T12:31:43;14.30;;;11.15;;
8183;SDS011;4133;48.752;9.088;2023-02-15T12:34:17;15.57;;;11.70;;
8183;SDS011;4133;48.752;9.088;2023-02-15T12:36:47;15.45;;;10.95;;
8183;SDS011;4133;48.752;9.088;2023-02-15T12:39:23;22.80;;;12.10;;
8183;SDS011;4133;48.752;9.088;2023-02-15T12:44:20;19.33;;;12.50;;
8183;SDS011;4133;48.752;9.088;2023-02-15T12:49:34;18.45;;;12.02;;
8183;SDS011;4133;48.752;9.088;2023-02-15T12:52:01;17.17;;;11.90;;
8183;SDS011;4133;48.752;9.088;2023-02-15T12:54:32;18.38;;;11.88;;
8183;SDS011;4133;48.752;9.088;2023-02-15T12:56:59;20.88;;;11.68;;
8183;SDS011;4133;48.752;9.088;2023-02-15T12:59:46;17.75;;;11.68;;
8183;SDS011;4133;48.752;9.088;2023-02-15T13:02:26;18.20;;;11.05;;
8183;SDS011;4133;48.752;9.088;2023-02-15T13:04:53;18.52;;;11.85;;
8183;SDS011;4133;48.752;9.088;2023-02-15T13:07:20;16.58;;;11.57;;
8183;SDS011;4133;48.752;9.088;2023-02-15T13:09:46;22.08;;;11.98;;
8183;SDS011;4133;48.752;9.088;2023-02-15T13:14:46;18.95;;;12.50;;
8183;SDS011;4133;48.752;9.088;2023-02-15T13:17:13;19.98;;;12.50;;
8183;SDS011;4133;48.752;9.088;2023-02-15T13:19:49;20.33;;;12.13;;
8183;SDS011;4133;48.752;9.088;2023-02-15T13:22:18;20.33;;;12.55;;
8183;SDS011;4133;48.752;9.088;2023-02-15T13:24:50;16.40;;;12.02;;
8183;SDS011;4133;48.752;9.088;2023-02-15T13:27:18;17.02;;;11.65;;
8183;SDS011;4133;48.752;9.088;2023-02-15T13:29:46;17.08;;;12.93;;
8183;SDS011;4133;48.752;9.088;2023-02-15T13:35:03;15.05;;;11.38;;
8183;SDS011;4133;48.752;9.088;2023-02-15T13:47:47;22.23;;;11.55;;
8183;SDS011;4133;48.752;9.088;2023-02-15T13:50:20;18.15;;;11.23;;
8183;SDS011;4133;48.752;9.088;2023-02-15T13:52:50;18.15;;;12.38;;
8183;SDS011;4133;48.752;9.088;2023-02-15T14:10:44;19.50;;;12.65;;
8183;SDS011;4133;48.752;9.088;2023-02-15T14:13:35;22.25;;;13.10;;
8183;SDS011;4133;48.752;9.088;2023-02-15T14:18:47;16.42;;;11.45;;
8183;SDS011;4133;48.752;9.088;2023-02-15T14:22:17;15.70;;;11.50;;
8183;SDS011;4133;48.752;9.088;2023-02-15T14:32:10;15.38;;;10.02;;
8183;SDS011;4133;48.752;9.088;2023-02-15T14:34:48;12.00;;;9.73;;
8183;SDS011;4133;48.752;9.088;2023-02-15T14:37:17;12.98;;;10.23;;
8183;SDS011;4133;48.752;9.088;2023-02-15T14:45:19;14.55;;;9.75;;
8183;SDS011;4133;48.752;9.088;2023-02-15T14:47:59;15.23;;;9.68;;
8183;SDS011;4133;48.752;9.088;2023-02-15T14:55:40;12.32;;;8.32;;
8183;SDS011;4133;48.752;9.088;2023-02-15T14:58:12;9.38;;;7.63;;
8183;SDS011;4133;48.752;9.088;2023-02-15T15:00:40;10.80;;;7.35;;
8183;SDS011;4133;48.752;9.088;2023-02-15T15:03:23;13.02;;;6.60;;
8183;SDS011;4133;48.752;9.088;2023-02-15T15:05:53;7.72;;;5.80;;
8183;SDS011;4133;48.752;9.088;2023-02-15T15:08:34;9.55;;;5.72;;
8183;SDS011;4133;48.752;9.088;2023-02-15T15:13:52;7.22;;;5.28;;
8183;SDS011;4133;48.752;9.088;2023-02-15T15:19:02;6.40;;;4.22;;
8183;SDS011;4133;48.752;9.088;2023-02-15T15:29:42;9.13;;;4.73;;
8183;SDS011;4133;48.752;9.088;2023-02-15T15:34:51;7.47;;;5.70;;
8183;SDS011;4133;48.752;9.088;2023-02-15T15:40:21;9.00;;;5.87;;
8183;SDS011;4133;48.752;9.088;2023-02-15T15:42:57;9.13;;;5.97;;
8183;SDS011;4133;48.752;9.088;2023-02-15T15:45:30;11.00;;;6.20;;
8183;SDS011;4133;48.752;9.088;2023-02-15T15:48:19;12.33;;;6.57;;
8183;SDS011;4133;48.752;9.088;2023-02-15T15:50:46;8.67;;;6.20;;
8183;SDS011;4133;48.752;9.088;2023-02-15T15:53:18;10.87;;;6.33;;
8183;SDS011;4133;48.752;9.088;2023-02-15T15:55:45;10.10;;;6.50;;
8183;SDS011;4133;48.752;9.088;2023-02-15T15:58:13;12.53;;;6.60;;
8183;SDS011;4133;48.752;9.088;2023-02-15T16:00:44;13.23;;;7.57;;
8183;SDS011;4133;48.752;9.088;2023-02-15T16:03:16;13.93;;;7.37;;
8183;SDS011;4133;48.752;9.088;2023-02-15T16:05:45;12.90;;;7.57;;
8183;SDS011;4133;48.752;9.088;2023-02-15T16:08:13;15.30;;;7.00;;
8183;SDS011;4133;48.752;9.088;2023-02-15T16:10:40;11.10;;;7.33;;
8183;SDS011;4133;48.752;9.088;2023-02-15T16:13:06;14.27;;;7.80;;
8183;SDS011;4133;48.752;9.088;2023-02-15T16:18:02;12.80;;;8.03;;
8183;SDS011;4133;48.752;9.088;2023-02-15T16:20:31;11.30;;;7.93;;
8183;SDS011;4133;48.752;9.088;2023-02-15T16:23:17;18.33;;;9.37;;
8183;SDS011;4133;48.752;9.088;2023-02-15T16:26:01;13.10;;;8.80;;
8183;SDS011;4133;48.752;9.088;2023-02-15T16:28:30;16.43;;;8.73;;
8183;SDS011;4133;48.752;9.088;2023-02-15T16:31:04;19.13;;;8.90;;
8183;SDS011;4133;48.752;9.088;2023-02-15T16:33:37;15.37;;;8.90;;
8183;SDS011;4133;48.752;9.088;2023-02-15T16:36:04;15.03;;;9.70;;
8183;SDS011;4133;48.752;9.088;2023-02-15T16:41:12;12.73;;;7.47;;
8183;SDS011;4133;48.752;9.088;2023-02-15T16:43:38;13.43;;;8.40;;
8183;SDS011;4133;48.752;9.088;2023-02-15T16:46:13;16.20;;;7.90;;
8183;SDS011;4133;48.752;9.088;2023-02-15T16:48:42;17.30;;;8.90;;
8183;SDS011;4133;48.752;9.088;2023-02-15T16:51:08;16.87;;;9.00;;
8183;SDS011;4133;48.752;9.088;2023-02-15T16:53:35;15.93;;;8.80;;
8183;SDS011;4133;48.752;9.088;2023-02-15T16:56:04;16.07;;;8.20;;
8183;SDS011;4133;48.752;9.088;2023-02-15T16:58:38;15.87;;;8.63;;
8183;SDS011;4133;48.752;9.088;2023-02-15T17:01:07;19.40;;;8.17;;
8183;SDS011;4133;48.752;9.088;2023-02-15T17:03:34;19.47;;;8.40;;
8183;SDS011;4133;48.752;9.088;2023-02-15T17:06:01;18.43;;;8.80;;
8183;SDS011;4133;48.752;9.088;2023-02-15T17:08:35;13.67;;;7.40;;
8183;SDS011;4133;48.752;9.088;2023-02-15T17:13:39;14.47;;;7.87;;
8183;SDS011;4133;48.752;9.088;2023-02-15T17:16:27;15.73;;;7.53;;
8183;SDS011;4133;48.752;9.088;2023-02-15T17:18:53;15.57;;;7.37;;
8183;SDS011;4133;48.752;9.088;2023-02-15T17:21:24;14.50;;;7.50;;
8183;SDS011;4133;48.752;9.088;2023-02-15T17:23:51;12.03;;;7.10;;
8183;SDS011;4133;48.752;9.088;2023-02-15T17:26:24;17.43;;;7.83;;
8183;SDS011;4133;48.752;9.088;2023-02-15T17:28:55;12.47;;;7.00;;
8183;SDS011;4133;48.752;9.088;2023-02-15T17:33:54;19.53;;;7.30;;
8183;SDS011;4133;48.752;9.088;2023-02-15T17:36:22;14.10;;;7.57;;
8183;SDS011;4133;48.752;9.088;2023-02-15T17:41:23;19.30;;;7.50;;
8183;SDS011;4133;48.752;9.088;2023-02-15T17:43:49;12.70;;;7.30;;
8183;SDS011;4133;48.752;9.088;2023-02-15T17:46:15;12.63;;;7.53;;
8183;SDS011;4133;48.752;9.088;2023-02-15T17:48:44;10.93;;;7.10;;
8183;SDS011;4133;48.752;9.088;2023-02-15T17:51:12;13.67;;;7.73;;
8183;SDS011;4133;48.752;9.088;2023-02-15T17:53:38;13.83;;;7.20;;
8183;SDS011;4133;48.752;9.088;2023-02-15T17:56:04;15.07;;;7.20;;
8183;SDS011;4133;48.752;9.088;2023-02-15T17:58:35;13.27;;;7.17;;
8183;SDS011;4133;48.752;9.088;2023-02-15T18:01:02;11.83;;;6.83;;
8183;SDS011;4133;48.752;9.088;2023-02-15T18:03:49;19.10;;;7.17;;
8183;SDS011;4133;48.752;9.088;2023-02-15T18:06:34;13.73;;;7.20;;
8183;SDS011;4133;48.752;9.088;2023-02-15T18:09:20;12.87;;;6.57;;
8183;SDS011;4133;48.752;9.088;2023-02-15T18:12:27;12.00;;;6.20;;
8183;SDS011;4133;48.752;9.088;2023-02-15T18:14:52;9.37;;;5.90;;
8183;SDS011;4133;48.752;9.088;2023-02-15T18:17:18;9.53;;;5.60;;
8183;SDS011;4133;48.752;9.088;2023-02-15T18:19:47;8.43;;;4.90;;
8183;SDS011;4133;48.752;9.088;2023-02-15T18:22:14;9.13;;;4.87;;
8183;SDS011;4133;48.752;9.088;2023-02-15T18:24:42;6.80;;;4.53;;
8183;SDS011;4133;48.752;9.088;2023-02-15T18:27:09;6.10;;;3.93;;
8183;SDS011;4133;48.752;9.088;2023-02-15T18:29:36;7.40;;;4.65;;
8183;SDS011;4133;48.752;9.088;2023-02-15T18:32:02;7.37;;;4.37;;
8183;SDS011;4133;48.752;9.088;2023-02-15T18:34:31;5.60;;;4.13;;
8183;SDS011;4133;48.752;9.088;2023-02-15T18:36:59;9.07;;;4.97;;
8183;SDS011;4133;48.752;9.088;2023-02-15T18:41:58;5.90;;;4.43;;
8183;SDS011;4133;48.752;9.088;2023-02-15T18:44:25;6.73;;;4.53;;
8183;SDS011;4133;48.752;9.088;2023-02-15T18:46:51;9.63;;;5.00;;
8183;SDS011;4133;48.752;9.088;2023-02-15T18:49:17;7.87;;;4.93;;
8183;SDS011;4133;48.752;9.088;2023-02-15T18:51:43;7.47;;;4.50;;
8183;SDS011;4133;48.752;9.088;2023-02-15T18:54:12;8.87;;;4.13;;
8183;SDS011;4133;48.752;9.088;2023-02-15T18:56:41;6.97;;;5.17;;